Time;durP1;ratioP1;P1;durP2;ratioP2;P2;SDS_P1;SDS_P2;PMS_P1;PMS_P2;Temp;Humidity;BMP_temperature;BMP_pressure;BME280_temperature;BME280_humidity;BME280_pressure;Samples;Min_cycle;Max_cycle;Signal;HPM_P1;HPM_P2
2021/07/04 00:00:16;;;;;;;8.40;6.20;;;;;;;19.74;57.81;99846.41;5095725;28;20036;-73
2021/07/04 00:02:45;;;;;;;8.90;6.10;;;;;;;19.77;57.89;99840.66;5096031;28;20097;-73
2021/07/04 00:05:16;;;;;;;8.27;6.07;;;;;;;19.79;57.76;99838.66;5095720;28;20101;-73
2021/07/04 00:07:46;;;;;;;8.70;5.97;;;;;;;19.66;58.55;99847.19;5095956;28;20119;-75
2021/07/04 00:10:18;;;;;;;9.20;5.90;;;;;;;19.69;58.06;99840.63;5095172;28;20040;-75
2021/07/04 00:12:47;;;;;;;8.05;6.00;;;;;;;19.68;58.15;99838.91;5077264;28;20093;-74
2021/07/04 00:15:19;;;;;;;10.00;6.47;;;;;;;19.62;58.35;99840.41;5095780;28;20044;-73
2021/07/04 00:17:49;;;;;;;9.07;6.32;;;;;;;19.66;58.57;99840.94;5095591;28;20097;-75
2021/07/04 00:20:20;;;;;;;8.07;6.30;;;;;;;19.67;58.62;99834.50;5095597;28;20052;-73
2021/07/04 00:22:54;;;;;;;9.35;6.03;;;;;;;19.62;58.60;99836.88;5095761;28;20075;-75
2021/07/04 00:25:24;;;;;;;10.02;6.40;;;;;;;19.62;58.57;99840.41;5095853;28;20120;-76
2021/07/04 00:27:53;;;;;;;9.50;6.65;;;;;;;19.62;58.73;99839.56;5095332;28;20097;-75
2021/07/04 00:30:22;;;;;;;8.85;6.20;;;;;;;19.70;58.50;99836.91;5095488;28;20444;-75
2021/07/04 00:32:51;;;;;;;7.82;6.30;;;;;;;19.68;58.74;99845.16;5095362;28;20090;-76
2021/07/04 00:35:22;;;;;;;10.18;6.43;;;;;;;19.71;58.34;99849.44;5095485;28;20482;-77
2021/07/04 00:37:53;;;;;;;8.90;6.30;;;;;;;19.78;58.07;99839.66;5095044;28;20059;-75
2021/07/04 00:40:22;;;;;;;8.43;6.40;;;;;;;19.74;58.49;99843.69;5095269;28;20044;-77
2021/07/04 00:42:51;;;;;;;10.70;6.35;;;;;;;19.76;58.46;99838.97;5094798;28;20044;-77
2021/07/04 00:45:21;;;;;;;9.27;6.50;;;;;;;19.74;58.41;99838.28;5095412;28;20068;-77
2021/07/04 00:47:51;;;;;;;8.32;6.63;;;;;;;19.69;58.91;99833.38;5077144;28;20495;-75
2021/07/04 00:50:21;;;;;;;7.97;6.18;;;;;;;19.60;58.92;99837.03;5077193;28;20048;-73
2021/07/04 00:52:55;;;;;;;8.73;6.00;;;;;;;19.55;59.22;99835.78;5094885;28;20081;-73
2021/07/04 00:55:24;;;;;;;7.70;5.70;;;;;;;19.47;59.90;99830.31;5094994;28;20130;-73
2021/07/04 00:57:53;;;;;;;8.70;6.75;;;;;;;19.54;59.78;99831.38;5094692;28;20036;-73
2021/07/04 01:00:24;;;;;;;10.77;7.00;;;;;;;19.41;60.01;99829.97;5094675;28;20040;-73
2021/07/04 01:02:52;;;;;;;10.75;6.30;;;;;;;19.32;60.62;99828.19;5094438;28;20483;-74
2021/07/04 01:05:23;;;;;;;8.25;6.05;;;;;;;19.26;60.84;99828.81;5094688;28;20047;-75
2021/07/04 01:07:51;;;;;;;9.65;6.38;;;;;;;19.27;60.83;99816.16;5094749;28;20059;-75
2021/07/04 01:10:24;;;;;;;8.60;6.13;;;;;;;19.37;60.44;99820.44;5094970;28;20040;-74
2021/07/04 01:12:56;;;;;;;8.07;6.63;;;;;;;19.63;59.67;99819.63;5094226;28;20048;-75
2021/07/04 01:15:26;;;;;;;9.13;6.72;;;;;;;19.41;60.53;99827.25;5094618;28;20040;-73
2021/07/04 01:17:58;;;;;;;9.02;6.63;;;;;;;19.38;60.59;99822.13;5094267;28;20406;-74
2021/07/04 01:20:29;;;;;;;10.63;6.80;;;;;;;19.30;60.78;99830.22;5094329;28;20071;-74
2021/07/04 01:23:01;;;;;;;9.18;6.47;;;;;;;19.27;60.63;99825.09;5093512;28;20044;-74
2021/07/04 01:25:32;;;;;;;9.20;6.40;;;;;;;19.19;61.30;99819.63;5076351;28;20094;-74
2021/07/04 01:28:01;;;;;;;9.60;6.80;;;;;;;19.14;61.39;99813.88;5094175;28;20063;-73
2021/07/04 01:30:30;;;;;;;10.95;7.00;;;;;;;19.15;61.31;99819.13;5094177;28;20047;-74
2021/07/04 01:32:58;;;;;;;8.65;6.70;;;;;;;19.02;62.09;99820.53;5094257;28;20123;-74
2021/07/04 01:35:27;;;;;;;9.80;6.82;;;;;;;18.97;62.45;99812.03;5094339;28;20111;-74
2021/07/04 01:37:55;;;;;;;8.40;6.70;;;;;;;19.01;61.97;99808.00;5093936;28;20040;-77
2021/07/04 01:40:25;;;;;;;9.10;7.10;;;;;;;18.87;62.49;99807.56;5094106;28;20115;-77
2021/07/04 01:42:54;;;;;;;10.35;7.43;;;;;;;18.75;63.30;99813.38;5093953;28;20094;-75
2021/07/04 01:45:25;;;;;;;9.30;6.93;;;;;;;18.65;63.84;99813.47;5094186;28;20050;-77
2021/07/04 01:47:54;;;;;;;9.07;7.07;;;;;;;18.54;64.04;99816.38;5094230;28;20044;-77
2021/07/04 01:50:26;;;;;;;10.25;7.32;;;;;;;18.70;63.53;99813.84;5093797;28;20040;-77
2021/07/04 01:52:54;;;;;;;9.98;7.57;;;;;;;18.78;63.01;99811.22;5093808;28;20044;-75
2021/07/04 01:55:23;;;;;;;11.25;7.13;;;;;;;18.58;64.12;99809.63;5093833;28;20050;-75
2021/07/04 01:57:54;;;;;;;10.82;7.20;;;;;;;18.49;64.47;99808.72;5093579;28;20052;-75
2021/07/04 02:00:25;;;;;;;11.15;7.53;;;;;;;18.38;64.52;99810.78;5093729;28;20063;-75
2021/07/04 02:02:56;;;;;;;11.20;7.25;;;;;;;18.29;65.26;99813.41;5093814;28;20040;-75
2021/07/04 02:05:25;;;;;;;10.20;7.32;;;;;;;18.21;65.70;99810.59;5093611;28;20093;-75
2021/07/04 02:07:56;;;;;;;9.63;7.13;;;;;;;18.13;66.27;99807.81;5093457;28;20490;-75
2021/07/04 02:10:27;;;;;;;10.95;7.25;;;;;;;18.11;67.00;99808.97;5093757;28;20067;-76
2021/07/04 02:12:57;;;;;;;9.63;7.55;;;;;;;18.05;66.46;99813.13;5093348;28;20451;-75
2021/07/04 02:15:31;;;;;;;11.60;7.43;;;;;;;18.05;66.99;99820.34;5093580;28;20556;-75
2021/07/04 02:18:06;;;;;;;11.52;7.43;;;;;;;18.09;67.51;99816.38;5093302;28;20444;-74
2021/07/04 02:20:37;;;;;;;11.43;7.68;;;;;;;18.12;66.44;99822.31;5093311;28;20563;-74
2021/07/04 02:23:09;;;;;;;10.77;7.22;;;;;;;18.12;66.43;99826.84;5093199;28;20126;-76
2021/07/04 02:25:41;;;;;;;11.20;8.23;;;;;;;18.17;66.40;99820.03;5093582;28;20487;-76
2021/07/04 02:28:13;;;;;;;12.18;7.50;;;;;;;18.19;65.84;99818.00;5093059;28;20422;-76
2021/07/04 02:30:42;;;;;;;9.07;7.03;;;;;;;18.18;65.75;99826.28;5093312;28;20090;-76
2021/07/04 02:33:12;;;;;;;10.63;7.10;;;;;;;18.19;65.81;99820.72;5092469;28;20055;-76
2021/07/04 02:35:42;;;;;;;10.55;7.32;;;;;;;18.23;66.15;99819.41;5093271;28;20035;-75
2021/07/04 02:38:13;;;;;;;10.70;7.60;;;;;;;18.37;65.79;99830.69;5093014;28;20036;-76
2021/07/04 02:40:44;;;;;;;10.27;7.25;;;;;;;18.46;64.86;99829.78;5093177;28;20115;-76
2021/07/04 02:43:21;;;;;;;9.00;7.20;;;;;;;18.69;64.06;99822.94;5092775;28;20040;-76
2021/07/04 02:45:51;;;;;;;9.93;7.60;;;;;;;18.63;64.00;99834.34;5093413;28;20119;-78
2021/07/04 02:48:20;;;;;;;9.20;7.28;;;;;;;18.53;64.49;99836.28;5092949;28;20036;-76
2021/07/04 02:50:48;;;;;;;11.13;7.65;;;;;;;18.28;65.55;99841.41;5093203;28;20123;-76
2021/07/04 02:53:16;;;;;;;10.40;7.88;;;;;;;18.40;65.13;99838.47;5092710;28;20051;-76
2021/07/04 02:55:45;;;;;;;9.95;7.72;;;;;;;18.40;65.27;99835.78;5092877;28;20040;-75
2021/07/04 02:58:13;;;;;;;9.93;8.05;;;;;;;18.50;64.87;99839.25;5092607;28;20040;-76
2021/07/04 03:00:45;;;;;;;11.30;7.57;;;;;;;18.45;65.09;99844.28;5093031;28;20044;-76
2021/07/04 03:03:13;;;;;;;10.90;7.93;;;;;;;18.30;65.47;99836.69;5092553;28;20448;-76
2021/07/04 03:05:42;;;;;;;9.95;7.70;;;;;;;18.28;65.70;99844.09;5092981;28;20047;-76
2021/07/04 03:08:12;;;;;;;9.57;7.82;;;;;;;18.33;65.50;99834.69;5092626;28;20085;-76
2021/07/04 03:10:43;;;;;;;11.18;8.10;;;;;;;18.27;65.64;99836.16;5092859;28;20044;-76
2021/07/04 03:13:11;;;;;;;11.25;7.90;;;;;;;18.19;66.11;99834.22;5092465;28;20101;-76
2021/07/04 03:15:40;;;;;;;10.73;8.48;;;;;;;18.26;65.77;99834.47;5092793;28;20040;-76
2021/07/04 03:18:10;;;;;;;12.95;8.10;;;;;;;18.24;66.02;99841.88;5092506;28;20048;-75
2021/07/04 03:20:38;;;;;;;12.48;7.95;;;;;;;18.20;66.55;99852.09;5092711;28;20448;-74
2021/07/04 03:23:06;;;;;;;11.45;7.78;;;;;;;18.23;66.45;99850.94;5092296;28;20037;-75
2021/07/04 03:25:35;;;;;;;12.20;7.68;;;;;;;18.65;64.69;99851.28;5092809;28;20044;-76
2021/07/04 03:28:03;;;;;;;10.98;7.78;;;;;;;18.65;64.49;99862.09;5092414;28;20055;-75
2021/07/04 03:30:32;;;;;;;10.48;8.20;;;;;;;18.58;64.97;99860.97;5092704;28;20040;-76
2021/07/04 03:33:00;;;;;;;12.13;8.35;;;;;;;18.55;65.45;99858.56;5092683;28;20081;-77
2021/07/04 03:35:32;;;;;;;10.68;8.02;;;;;;;18.63;65.00;99855.13;5092519;28;20097;-77
2021/07/04 03:38:00;;;;;;;11.90;8.10;;;;;;;19.30;62.52;99840.16;5092740;28;20068;-77
2021/07/04 03:40:28;;;;;;;12.77;8.23;;;;;;;19.39;62.21;99836.50;5092411;28;20410;-74
2021/07/04 03:42:59;;;;;;;10.30;7.78;;;;;;;20.15;59.49;99833.88;5092478;28;20155;-73
2021/07/04 03:45:27;;;;;;;9.60;7.10;;;;;;;21.10;56.76;99832.56;5094511;28;20047;-75
2021/07/04 03:47:56;;;;;;;10.52;8.07;;;;;;;21.69;54.97;99837.75;5096262;28;20047;-79
2021/07/04 03:50:24;;;;;;;9.63;6.53;;;;;;;22.47;52.01;99829.63;5096133;28;20048;-79
2021/07/04 03:52:56;;;;;;;8.40;6.65;;;;;;;22.96;50.58;99833.91;5096399;28;20410;-79
2021/07/04 03:55:25;;;;;;;9.70;6.60;;;;;;;23.74;48.36;99833.56;5095924;28;20444;-79
2021/07/04 03:57:53;;;;;;;9.55;6.75;;;;;;;24.02;47.88;99833.72;5096373;28;20044;-81
2021/07/04 04:00:22;;;;;;;8.80;6.88;;;;;;;23.89;47.72;99828.09;5095854;28;20055;-80
2021/07/04 04:02:50;;;;;;;8.63;6.55;;;;;;;24.65;46.05;99828.66;5096092;28;20044;-79
2021/07/04 04:05:19;;;;;;;9.10;7.00;;;;;;;25.05;45.06;99822.56;5095803;28;20047;-72
2021/07/04 04:07:47;;;;;;;9.13;6.78;;;;;;;25.08;45.26;99824.91;5095855;28;20051;-74
2021/07/04 04:10:17;;;;;;;10.63;6.72;;;;;;;25.22;44.11;99825.03;5095733;28;20036;-74
2021/07/04 04:12:46;;;;;;;9.32;6.78;;;;;;;25.27;43.98;99828.00;5095539;28;20048;-74
2021/07/04 04:15:15;;;;;;;8.88;7.07;;;;;;;26.04;42.32;99830.66;5077545;28;20387;-74
2021/07/04 04:17:43;;;;;;;9.75;6.57;;;;;;;25.89;42.21;99830.78;5095983;28;20044;-74
2021/07/04 04:20:13;;;;;;;7.15;6.32;;;;;;;25.94;42.44;99824.72;5095297;28;20052;-74
2021/07/04 04:22:41;;;;;;;10.15;6.78;;;;;;;26.01;42.34;99827.47;5095852;28;20043;-73
2021/07/04 04:25:11;;;;;;;8.38;6.82;;;;;;;26.15;41.52;99823.75;5095154;28;20044;-74
2021/07/04 04:27:41;;;;;;;8.68;6.78;;;;;;;26.53;40.87;99821.41;5095403;28;20040;-74
2021/07/04 04:30:10;;;;;;;8.57;6.45;;;;;;;26.86;40.45;99828.88;5095342;28;20082;-72
2021/07/04 04:32:39;;;;;;;9.43;6.78;;;;;;;26.61;40.63;99825.84;5095602;28;20040;-74
2021/07/04 04:35:10;;;;;;;8.40;6.50;;;;;;;26.74;40.15;99834.94;5095012;28;20036;-73
2021/07/04 04:37:39;;;;;;;8.40;6.60;;;;;;;27.21;39.58;99827.63;5077132;28;20503;-72
2021/07/04 04:40:08;;;;;;;7.22;6.07;;;;;;;27.20;38.95;99833.34;5076686;28;20106;-72
2021/07/04 04:42:36;;;;;;;9.68;6.20;;;;;;;27.70;38.63;99831.00;5095256;28;20110;-73
2021/07/04 04:45:08;;;;;;;9.20;6.25;;;;;;;27.62;38.34;99832.06;5095186;28;20482;-76
2021/07/04 04:47:37;;;;;;;7.43;5.93;;;;;;;27.99;37.89;99833.28;5095293;28;20044;-74
2021/07/04 04:50:07;;;;;;;9.02;6.22;;;;;;;27.87;37.51;99827.59;5095311;28;20441;-74
2021/07/04 04:52:35;;;;;;;7.97;5.93;;;;;;;28.10;37.06;99831.75;5094863;28;20484;-75
2021/07/04 04:55:06;;;;;;;7.72;6.40;;;;;;;28.52;37.01;99828.44;5094764;28;20480;-75
2021/07/04 04:57:35;;;;;;;9.98;6.57;;;;;;;28.60;36.66;99827.34;5095014;28;20040;-75
2021/07/04 05:00:07;;;;;;;7.82;6.25;;;;;;;28.97;35.78;99833.06;5094919;28;20044;-75
2021/07/04 05:02:42;;;;;;;8.57;6.25;;;;;;;28.52;36.96;99828.44;5094726;28;20105;-74
2021/07/04 05:05:13;;;;;;;8.82;6.07;;;;;;;28.97;35.25;99828.41;5094360;28;20067;-74
2021/07/04 05:07:41;;;;;;;7.63;5.65;;;;;;;29.22;35.65;99830.31;5094681;28;20051;-74
2021/07/04 05:10:11;;;;;;;7.30;5.78;;;;;;;29.36;34.82;99832.75;5094221;28;20072;-74
2021/07/04 05:12:39;;;;;;;8.73;5.65;;;;;;;28.56;35.81;99825.25;5094612;28;20455;-74
2021/07/04 05:15:10;;;;;;;8.30;6.10;;;;;;;28.77;35.82;99828.50;5094543;28;20040;-75
2021/07/04 05:17:38;;;;;;;7.30;5.45;;;;;;;29.77;34.48;99827.72;5094472;28;20044;-72
2021/07/04 05:20:08;;;;;;;7.78;5.95;;;;;;;29.29;35.23;99834.69;5094398;28;20040;-74
2021/07/04 05:22:36;;;;;;;7.55;5.47;;;;;;;29.41;35.26;99833.97;5094487;28;20044;-74
2021/07/04 05:25:07;;;;;;;8.77;6.00;;;;;;;28.48;36.62;99835.44;5094364;28;20040;-74
2021/07/04 05:27:35;;;;;;;8.52;5.80;;;;;;;29.91;34.05;99827.34;5094266;28;20036;-74
2021/07/04 05:30:04;;;;;;;7.05;5.60;;;;;;;29.96;33.96;99826.69;5094176;28;20105;-74
2021/07/04 05:32:33;;;;;;;9.13;5.50;;;;;;;29.92;33.74;99828.22;5094069;28;20047;-73
2021/07/04 05:35:02;;;;;;;7.15;5.78;;;;;;;29.22;34.81;99830.31;5094274;28;20047;-74
2021/07/04 05:37:31;;;;;;;6.80;5.35;;;;;;;29.88;34.06;99826.97;5093876;28;20048;-74
2021/07/04 05:40:02;;;;;;;7.05;5.40;;;;;;;30.32;33.24;99830.53;5094258;28;20047;-74
2021/07/04 05:42:30;;;;;;;7.60;5.40;;;;;;;30.62;32.85;99825.03;5093595;28;20043;-74
2021/07/04 05:44:59;;;;;;;7.90;5.10;;;;;;;30.44;33.26;99831.41;5093931;28;20055;-74
2021/07/04 05:47:28;;;;;;;7.75;5.63;;;;;;;30.44;32.59;99828.66;5093859;28;20554;-77
2021/07/04 05:49:57;;;;;;;6.63;5.15;;;;;;;30.49;32.70;99826.03;5094260;28;20040;-74
2021/07/04 05:52:28;;;;;;;7.15;4.63;;;;;;;30.64;31.70;99834.75;5093501;28;20036;-76
2021/07/04 05:54:59;;;;;;;6.20;4.82;;;;;;;30.51;32.00;99837.69;5093603;28;20067;-74
2021/07/04 05:57:27;;;;;;;6.63;4.60;;;;;;;30.66;31.62;99832.59;5093433;28;20426;-75
2021/07/04 05:59:55;;;;;;;7.80;4.60;;;;;;;31.22;30.57;99839.63;5093888;28;20127;-73
2021/07/04 06:02:24;;;;;;;6.78;4.22;;;;;;;30.95;31.29;99841.09;5093247;28;20109;-74
2021/07/04 06:04:52;;;;;;;6.15;4.50;;;;;;;30.92;31.04;99836.06;5093521;28;20076;-74
2021/07/04 06:07:22;;;;;;;7.15;4.60;;;;;;;31.78;29.92;99837.41;5092874;28;20119;-75
2021/07/04 06:09:50;;;;;;;8.77;5.10;;;;;;;30.88;31.46;99832.06;5093484;28;20131;-74
2021/07/04 06:12:18;;;;;;;7.22;4.80;;;;;;;30.94;31.53;99836.66;5092898;28;20047;-74
2021/07/04 06:14:47;;;;;;;8.18;4.88;;;;;;;31.10;31.17;99840.66;5093522;28;20060;-72
2021/07/04 06:17:15;;;;;;;8.43;5.15;;;;;;;31.28;30.71;99835.94;5093146;28;20048;-73
2021/07/04 06:19:44;;;;;;;6.43;4.70;;;;;;;31.27;30.62;99834.25;5093456;28;20468;-73
2021/07/04 06:22:12;;;;;;;6.45;4.90;;;;;;;30.85;31.33;99835.31;5093040;28;20449;-73
2021/07/04 06:24:42;;;;;;;6.97;5.10;;;;;;;31.80;30.17;99824.22;5092755;28;20051;-73
2021/07/04 06:27:10;;;;;;;10.32;5.30;;;;;;;31.54;30.36;99828.28;5093434;28;20054;-75
2021/07/04 06:29:38;;;;;;;8.00;5.32;;;;;;;31.29;31.21;99837.63;5074792;28;20044;-75
2021/07/04 06:32:07;;;;;;;7.47;4.85;;;;;;;31.94;29.68;99833.91;5093184;28;20423;-74
2021/07/04 06:34:38;;;;;;;7.47;4.95;;;;;;;31.65;30.10;99837.63;5092753;28;20040;-74
2021/07/04 06:37:06;;;;;;;8.13;4.82;;;;;;;31.65;30.42;99841.22;5092785;28;20483;-76
2021/07/04 06:39:36;;;;;;;6.60;4.70;;;;;;;31.89;30.76;99837.41;5092759;28;20043;-75
2021/07/04 06:42:09;;;;;;;7.03;5.15;;;;;;;31.77;30.34;99844.84;5093298;28;20097;-76
2021/07/04 06:44:38;;;;;;;6.93;4.50;;;;;;;31.89;30.34;99842.91;5093055;28;20052;-74
2021/07/04 06:47:07;;;;;;;7.75;4.95;;;;;;;31.79;30.25;99836.34;5093122;28;20513;-77
2021/07/04 06:49:37;;;;;;;6.03;4.82;;;;;;;31.39;30.68;99847.22;5092938;28;20127;-75
2021/07/04 06:52:06;;;;;;;6.32;4.85;;;;;;;31.68;30.30;99842.66;5093061;28;20040;-76
2021/07/04 06:54:35;;;;;;;6.70;4.53;;;;;;;31.73;30.18;99846.38;5093228;28;20044;-77
2021/07/04 06:59:47;;;;;;;5.20;4.22;;;;;;;31.98;29.90;99845.31;5091903;28;20054;-78
2021/07/04 07:02:16;;;;;;;6.88;4.80;;;;;;;31.94;29.97;99841.34;5096777;28;20044;-74
2021/07/04 07:04:44;;;;;;;7.95;4.72;;;;;;;30.82;31.44;99842.13;5092404;28;20048;-75
2021/07/04 07:07:12;;;;;;;6.43;4.53;;;;;;;29.68;32.37;99837.34;5092928;28;20071;-76
2021/07/04 07:09:40;;;;;;;6.13;4.22;;;;;;;29.20;33.33;99837.94;5088835;28;20035;-73
2021/07/04 07:12:09;;;;;;;6.82;4.78;;;;;;;29.42;33.10;99830.97;5092767;28;20097;-73
2021/07/04 07:14:37;;;;;;;6.03;4.25;;;;;;;29.03;34.53;99835.75;5092569;28;20084;-73
2021/07/04 07:17:07;;;;;;;7.75;4.85;;;;;;;28.78;34.66;99837.59;5092932;28;20080;-76
2021/07/04 07:19:38;;;;;;;6.60;4.82;;;;;;;28.73;34.78;99832.75;5092792;28;20128;-74
2021/07/04 07:22:08;;;;;;;5.72;3.83;;;;;;;28.79;34.34;99831.88;5096985;28;20057;-74
2021/07/04 07:24:37;;;;;;;5.60;3.83;;;;;;;28.95;33.73;99825.06;5096398;28;20044;-81
2021/07/04 07:27:06;;;;;;;6.50;4.28;;;;;;;28.57;33.76;99832.41;5096643;28;20479;-82
2021/07/04 07:29:34;;;;;;;6.82;4.28;;;;;;;27.91;35.32;99828.88;5096272;28;20437;-76
2021/07/04 07:32:03;;;;;;;7.88;4.80;;;;;;;27.78;35.24;99823.41;5096630;28;20051;-74
2021/07/04 07:34:32;;;;;;;6.70;4.47;;;;;;;27.78;35.47;99823.41;5096800;28;20490;-76
2021/07/04 07:37:01;;;;;;;9.40;4.80;;;;;;;28.02;36.25;99821.03;5096606;28;20093;-79
2021/07/04 07:39:29;;;;;;;5.68;4.38;;;;;;;27.69;35.84;99815.63;5095974;28;20077;-77
2021/07/04 07:41:58;;;;;;;6.68;4.18;;;;;;;27.74;34.74;99813.94;5095252;28;20075;-74
2021/07/04 07:44:26;;;;;;;10.00;4.70;;;;;;;27.70;35.21;99820.91;5096255;28;20486;-74
2021/07/04 07:46:54;;;;;;;6.65;4.30;;;;;;;27.56;35.08;99813.72;5096355;28;20154;-74
2021/07/04 07:49:23;;;;;;;5.78;4.30;;;;;;;27.58;35.90;99819.81;5096342;28;20032;-73
2021/07/04 07:51:54;;;;;;;6.38;5.10;;;;;;;27.46;35.70;99813.31;5096399;28;20036;-75
2021/07/04 07:54:22;;;;;;;6.95;4.78;;;;;;;27.10;36.88;99815.44;5096307;28;20040;-73
2021/07/04 07:56:51;;;;;;;6.60;4.68;;;;;;;27.32;36.44;99812.50;5096151;28;20040;-73
2021/07/04 07:59:20;;;;;;;7.25;4.72;;;;;;;27.42;36.35;99814.81;5095955;28;20094;-74
2021/07/04 08:01:49;;;;;;;6.15;4.38;;;;;;;27.52;35.74;99807.00;5096127;28;20076;-74
2021/07/04 08:04:18;;;;;;;6.38;4.50;;;;;;;27.29;35.78;99807.44;5095916;28;20501;-75
2021/07/04 08:06:48;;;;;;;7.22;4.40;;;;;;;27.33;35.58;99806.81;5094899;28;20387;-72
2021/07/04 08:09:19;;;;;;;6.57;4.20;;;;;;;27.13;35.61;99816.09;5095283;28;20040;-74
2021/07/04 08:11:47;;;;;;;8.02;4.65;;;;;;;26.66;36.07;99818.72;5096244;28;20046;-72
2021/07/04 08:14:16;;;;;;;6.50;4.38;;;;;;;26.73;35.00;99822.31;5095779;28;20059;-75
2021/07/04 08:16:44;;;;;;;6.78;4.65;;;;;;;26.71;35.38;99809.88;5095883;28;20040;-73
2021/07/04 08:19:13;;;;;;;6.88;4.25;;;;;;;26.52;35.39;99817.00;5095341;28;20044;-74
2021/07/04 08:21:44;;;;;;;5.47;4.47;;;;;;;26.80;34.76;99809.47;5095704;28;20096;-73
2021/07/04 08:24:12;;;;;;;7.22;4.47;;;;;;;26.95;35.27;99817.50;5095826;28;20047;-74
2021/07/04 08:26:42;;;;;;;7.60;4.32;;;;;;;26.92;34.40;99814.31;5095497;28;20555;-78
2021/07/04 08:29:10;;;;;;;6.68;4.18;;;;;;;26.99;34.15;99801.50;5095515;28;20036;-75
2021/07/04 08:31:41;;;;;;;6.93;4.53;;;;;;;27.26;33.58;99808.69;5094937;28;20037;-75
2021/07/04 08:34:12;;;;;;;7.28;4.40;;;;;;;27.22;34.10;99817.56;5095324;28;20486;-75
2021/07/04 08:36:40;;;;;;;6.30;4.28;;;;;;;27.33;33.58;99812.28;5095721;28;20558;-77
2021/07/04 08:39:08;;;;;;;5.53;4.40;;;;;;;27.47;33.55;99815.00;5094804;28;20123;-75
2021/07/04 08:41:37;;;;;;;6.78;4.15;;;;;;;27.41;34.63;99811.22;5095458;28;20044;-74
2021/07/04 08:44:08;;;;;;;5.93;4.28;;;;;;;27.50;33.79;99800.88;5095205;28;20052;-76
2021/07/04 08:46:40;;;;;;;6.40;4.45;;;;;;;27.86;33.41;99801.25;5095421;28;20061;-76
2021/07/04 08:49:08;;;;;;;6.40;4.68;;;;;;;27.93;33.09;99801.25;5095099;28;20047;-77
2021/07/04 08:51:37;;;;;;;6.45;4.88;;;;;;;27.98;33.50;99804.16;5095206;28;20044;-71
2021/07/04 08:54:06;;;;;;;6.82;4.50;;;;;;;27.99;32.52;99807.75;5095042;28;20047;-77
2021/07/04 08:56:34;;;;;;;6.82;5.00;;;;;;;27.72;33.96;99802.34;5095195;28;20047;-77
2021/07/04 08:59:03;;;;;;;8.43;4.78;;;;;;;27.42;34.00;99796.47;5094420;28;20131;-75
2021/07/04 09:01:33;;;;;;;7.75;4.97;;;;;;;27.36;33.99;99802.81;5095314;28;20040;-74
2021/07/04 09:04:10;;;;;;;8.05;4.40;;;;;;;27.52;33.47;99807.00;5095049;28;20052;-79
2021/07/04 09:06:43;;;;;;;8.32;4.68;;;;;;;27.52;32.11;99807.00;5094734;28;20044;-77
2021/07/04 09:09:20;;;;;;;7.40;4.50;;;;;;;27.63;32.01;99798.97;5094361;28;20040;-78
2021/07/04 09:11:53;;;;;;;6.63;4.43;;;;;;;27.84;31.43;99799.78;5094869;28;20465;-77
2021/07/04 09:14:31;;;;;;;;;;;;;;;28.06;32.21;99797.59;5076767;28;20060;-74
2021/07/04 09:17:09;;;;;;;;;;;;;;;28.00;31.57;99803.97;5094194;28;19924;-80
2021/07/04 09:19:39;;;;;;;6.68;4.50;;;;;;;27.96;31.38;99798.06;5094464;28;19927;-76
2021/07/04 09:22:10;;;;;;;6.30;4.20;;;;;;;27.92;30.50;99794.91;5094377;28;20097;-76
2021/07/04 09:24:42;;;;;;;7.28;4.65;;;;;;;28.02;30.62;99790.88;5094489;28;20040;-78
2021/07/04 09:27:12;;;;;;;8.93;4.57;;;;;;;28.22;30.29;99781.50;5094275;28;20093;-79
2021/07/04 09:29:48;;;;;;;5.95;4.20;;;;;;;27.74;30.87;99778.31;5094064;28;20123;-78
2021/07/04 09:32:19;;;;;;;6.05;4.20;;;;;;;27.77;31.03;99771.56;5094412;28;20419;-75
2021/07/04 09:34:58;;;;;;;7.70;4.33;;;;;;;27.48;30.68;99775.59;5094265;28;20055;-75
2021/07/04 09:37:28;;;;;;;5.53;3.92;;;;;;;27.60;29.67;99763.78;5094102;28;20097;-79
2021/07/04 09:40:20;;;;;;;6.68;4.13;;;;;;;27.69;31.51;99772.63;5094106;28;20036;-76
2021/07/04 09:43:07;;;;;;;7.28;4.22;;;;;;;27.41;32.13;99766.53;5093119;28;20044;-77
2021/07/04 09:45:47;;;;;;;7.32;4.10;;;;;;;27.64;31.92;99762.28;5093865;28;20071;-74
2021/07/04 09:48:19;;;;;;;6.95;3.92;;;;;;;27.60;31.51;99760.19;5094001;28;20059;-75
2021/07/04 09:50:50;;;;;;;6.25;3.80;;;;;;;27.87;30.51;99756.34;5093831;28;20109;-75
2021/07/04 09:53:20;;;;;;;6.57;4.20;;;;;;;27.88;31.78;99765.41;5093806;28;20040;-73
2021/07/04 09:55:51;;;;;;;5.97;4.40;;;;;;;27.94;31.86;99754.44;5093914;28;20097;-76
2021/07/04 09:58:21;;;;;;;6.43;4.10;;;;;;;28.34;30.60;99745.19;5093654;28;20051;-76
2021/07/04 10:00:49;;;;;;;6.45;4.32;;;;;;;28.26;30.61;99754.47;5093808;28;20375;-75
2021/07/04 10:03:21;;;;;;;5.78;4.30;;;;;;;28.51;30.50;99747.19;5075914;28;20155;-78
2021/07/04 10:06:04;;;;;;;7.15;4.47;;;;;;;28.36;30.10;99754.88;5093349;28;20044;-75
2021/07/04 10:08:33;;;;;;;;;;;;;;;28.38;31.42;99747.28;5093608;28;20036;-76
2021/07/04 10:11:05;;;;;;;7.85;4.50;;;;;;;28.28;31.03;99751.50;5093859;28;19955;-78
2021/07/04 10:13:39;;;;;;;5.85;3.92;;;;;;;28.10;30.74;99744.03;5093728;28;20474;-75
2021/07/04 10:16:10;;;;;;;6.13;3.88;;;;;;;28.26;29.76;99737.19;5093474;28;20047;-75
2021/07/04 10:18:44;;;;;;;6.38;3.75;;;;;;;28.27;29.61;99747.94;5093272;28;20070;-75
2021/07/04 10:21:13;;;;;;;7.80;3.80;;;;;;;28.09;30.56;99734.13;5092919;28;20035;-76
2021/07/04 10:23:47;;;;;;;5.68;3.83;;;;;;;28.50;29.10;99722.75;5093517;28;20048;-77
2021/07/04 10:26:16;;;;;;;6.82;3.80;;;;;;;28.49;29.22;99715.56;5093429;28;20071;-75
2021/07/04 10:28:46;;;;;;;6.05;3.70;;;;;;;28.63;29.36;99716.31;5093046;28;20452;-76
2021/07/04 10:31:16;;;;;;;5.68;3.97;;;;;;;28.41;29.62;99713.09;5093303;28;20390;-74
2021/07/04 10:34:03;;;;;;;6.88;4.20;;;;;;;28.65;29.89;99712.25;5093461;28;20406;-78
2021/07/04 10:36:32;;;;;;;6.63;3.95;;;;;;;28.52;29.78;99702.25;5075443;28;20078;-77
2021/07/04 10:39:10;;;;;;;5.43;3.97;;;;;;;28.63;30.10;99700.69;5092570;28;20048;-77
2021/07/04 10:41:38;;;;;;;6.38;3.78;;;;;;;28.67;30.43;99701.09;5093328;28;20044;-78
2021/07/04 10:44:09;;;;;;;5.88;3.88;;;;;;;28.74;29.97;99707.34;5093325;28;20402;-76
2021/07/04 10:47:04;;;;;;;6.63;4.57;;;;;;;28.61;29.88;99697.31;5093268;28;20044;-76
2021/07/04 10:49:40;;;;;;;6.13;3.92;;;;;;;28.54;29.89;99688.28;5092737;28;20128;-75
2021/07/04 10:52:14;;;;;;;6.20;4.00;;;;;;;28.76;29.89;99694.25;5092920;28;20126;-76
2021/07/04 10:55:05;;;;;;;7.53;4.15;;;;;;;28.30;30.28;99703.66;5092927;28;20048;-73
2021/07/04 10:57:35;;;;;;;6.35;3.80;;;;;;;28.23;30.28;99702.81;5089366;28;20141;-75
2021/07/04 11:00:16;;;;;;;6.78;4.40;;;;;;;28.40;30.50;99697.69;5091724;28;20048;-74
2021/07/04 11:02:46;;;;;;;5.63;3.40;;;;;;;28.72;29.51;99693.84;5093259;28;20535;-79
2021/07/04 11:05:18;;;;;;;6.15;3.60;;;;;;;28.86;28.75;99691.00;5093266;28;20044;-75
2021/07/04 11:08:05;;;;;;;5.60;3.72;;;;;;;28.85;28.29;99697.53;5092492;28;20047;-77
2021/07/04 11:10:35;;;;;;;5.13;3.60;;;;;;;28.70;28.26;99690.50;5072661;28;20475;-76
2021/07/04 11:13:48;;;;;;;4.53;3.20;;;;;;;28.87;27.86;99689.94;5072853;28;20102;-81
2021/07/04 11:16:26;;;;;;;4.93;3.30;;;;;;;28.98;27.99;99687.34;5072700;28;20124;-74
2021/07/04 11:19:05;;;;;;;4.53;3.15;;;;;;;29.07;28.20;99685.16;5072293;28;20086;-76
2021/07/04 11:21:54;;;;;;;4.53;3.38;;;;;;;29.08;26.89;99676.69;5072588;28;20049;-73
2021/07/04 11:24:25;;;;;;;5.63;3.30;;;;;;;29.21;27.28;99675.69;5072824;28;20486;-78
2021/07/04 11:27:23;;;;;;;5.68;3.45;;;;;;;29.17;27.50;99674.47;5072503;28;20041;-73
2021/07/04 11:30:26;;;;;;;4.38;3.10;;;;;;;29.16;27.58;99670.06;5072322;28;20045;-77
2021/07/04 11:33:24;;;;;;;5.90;3.78;;;;;;;28.78;29.15;99670.19;5072593;28;20123;-73
2021/07/04 11:35:55;;;;;;;5.30;3.70;;;;;;;28.44;29.30;99668.75;5072406;28;20487;-72
2021/07/04 11:38:26;;;;;;;5.63;3.30;;;;;;;28.39;29.82;99665.84;5080826;28;20036;-73
2021/07/04 11:40:55;;;;;;;5.72;3.50;;;;;;;28.33;30.17;99662.09;5092655;28;20047;-73
2021/07/04 11:43:27;;;;;;;5.10;3.70;;;;;;;28.37;29.83;99666.03;5092652;28;20502;-73
2021/07/04 11:45:57;;;;;;;5.50;3.55;;;;;;;28.77;29.44;99660.28;5092406;28;20044;-73
2021/07/04 11:48:48;;;;;;;5.95;3.55;;;;;;;28.91;29.26;99653.59;5092667;28;20040;-72
2021/07/04 11:51:28;;;;;;;7.50;3.33;;;;;;;28.79;28.42;99649.91;5079522;28;20075;-73